WetterOnline ( https://www.wetteronline.de )

Wetter aktuell Kämpfelbach

Aktuelles Wetter: Mühlacker (245m)

6-stündlich | Neueste Meldungen
Ortszeit Temperatur Wetter
Di, 28.01. 13:00 5.4° C Regen
Di, 28.01. 7:00 8.0° C wolkig
Di, 28.01. 1:00 7.1° C bewölkt
Mo, 27.01. 19:00 4.4° C bewölkt
Mo, 27.01. 13:00 10.6° C bewölkt
Mo, 27.01. 7:00 -1.7° C leicht bewölkt
Mo, 27.01. 1:00 -2.7° C leicht bewölkt
So, 26.01. 19:00 -0.5° C wolkenlos
Ortszeit Temperatur Wetter
Di, 28.01. 18:00 4.4° C wolkig
Di, 28.01. 17:50 4.4° C wolkig
Di, 28.01. 17:40 4.2° C wolkig
Di, 28.01. 17:30 4.7° C bewölkt
Di, 28.01. 17:20 4.7° C bewölkt
Di, 28.01. 17:10 4.9° C bewölkt
Di, 28.01. 17:00 4.9° C bewölkt
Di, 28.01. 16:30 5.2° C wolkig
Di, 28.01. 16:00 4.9° C bewölkt
Di, 28.01. 15:30 3.5° C leicht bewölkt
Di, 28.01. 15:00 4.8° C Sprühregen
Ortszeit Relative Feuchte Sichtweite
Di, 28.01. 13:00 71% 30 km
Di, 28.01. 7:00 69% 70 km
Di, 28.01. 1:00 82% 70 km
Mo, 27.01. 19:00 94% 35 km
Mo, 27.01. 13:00 65% 45 km
Mo, 27.01. 7:00 100% 2.5 km
Mo, 27.01. 1:00 100% 2.1 km
So, 26.01. 19:00 99% 2.7 km
Ortszeit Relative Feuchte Sichtweite
Di, 28.01. 18:00 73% 70 km
Di, 28.01. 17:50 73% -
Di, 28.01. 17:40 74% -
Di, 28.01. 17:30 69% 70 km
Di, 28.01. 17:20 69% -
Di, 28.01. 17:10 68% -
Di, 28.01. 17:00 68% 70 km
Di, 28.01. 16:30 69% 70 km
Di, 28.01. 16:00 71% 70 km
Di, 28.01. 15:30 83% 50 km
Di, 28.01. 15:00 74% 40 km
Ortszeit Niederschlagsmenge Niederschlagsart
Di, 28.01. 13:00 0.9 l/m2 in 6 Std. Regen
Di, 28.01. 7:00 2 l/m2 in 12 Std. Regen
Di, 28.01. 1:00 0.8 l/m2 in 6 Std. Regen
Mo, 27.01. 19:00 0.1 l/m2 in 12 Std. Regen
Mo, 27.01. 13:00 0.0 l/m2 in 6 Std. -
Mo, 27.01. 7:00 0.1 l/m2 in 12 Std. Sprühregen
Mo, 27.01. 1:00 0.0 l/m2 in 6 Std. -
So, 26.01. 19:00 0.0 l/m2 in 12 Std. -
Ortszeit Niederschlagsmenge Niederschlagsart
Di, 28.01. 18:00 0.1 l/m2 in 1 Std. Schnee, Regen
Di, 28.01. 17:50 keine Meldung -
Di, 28.01. 17:40 keine Meldung -
Di, 28.01. 17:30 0.1 l/m2 in 1 Std. Schneeregen
Di, 28.01. 17:20 keine Meldung -
Di, 28.01. 17:10 keine Meldung -
Di, 28.01. 17:00 0.0 l/m2 in 1 Std. -
Di, 28.01. 16:30 0.0 l/m2 in 1 Std. -
Di, 28.01. 16:00 0.8 l/m2 in 1 Std. Schneeschauer
Di, 28.01. 15:30 0.8 l/m2 in 1 Std. gefrierender Regen
Di, 28.01. 15:00 0.3 l/m2 in 1 Std. Regen
Ortszeit Stärke Spitze Richtung
km/h Bft. km/h Grad Sektor
Di, 28.01. 13:00 33 5 80 260° W
Di, 28.01. 7:00 14 3 36 230° SW
Di, 28.01. 1:00 7 2 29 140° SO
Mo, 27.01. 19:00 0 0 29 - -
Mo, 27.01. 13:00 6 1 20 190° S
Mo, 27.01. 7:00 2 1 9 50° NO
Mo, 27.01. 1:00 4 1 7 170° S
So, 26.01. 19:00 0 0 11 - -
Ortszeit Stärke Spitze Richtung
km/h Bft. km/h Grad Sektor
Di, 28.01. 18:00 24 4 50 250° W
Di, 28.01. 17:50 24 4 - 250° W
Di, 28.01. 17:40 28 4 - 240° SW
Di, 28.01. 17:30 20 4 35 250° W
Di, 28.01. 17:20 20 4 - 250° W
Di, 28.01. 17:10 20 4 - 250° W
Di, 28.01. 17:00 22 4 47 250° W
Di, 28.01. 16:30 18 3 43 250° W
Di, 28.01. 16:00 22 4 54 250° W
Di, 28.01. 15:30 25 4 54 260° W
Di, 28.01. 15:00 31 5 59 260° W
Ortszeit Untergrenze Bedeckung Gattung
total tief tief mittel hoch
Di, 28.01. 13:00 1050 m 6/8 5/8 - - -
Di, 28.01. 7:00 2700 m 7/8 4/8 - - -
Di, 28.01. 1:00 1380 m 8/8 7/8 - - -
Mo, 27.01. 19:00 1110 m 7/8 7/8 - - -
Mo, 27.01. 13:00 1500 m 7/8 7/8 - - -
Mo, 27.01. 7:00 1500 m 2/8 2/8 - - -
Mo, 27.01. 1:00 1800 m 2/8 2/8 - - -
So, 26.01. 19:00 - 0/8 0/8 - - -
Ortszeit Bedeckungsgrad in Achtel und Wolkenuntergrenze
Di, 28.01. 18:00 4(1200m) 7(4500m) 7(5400m)
Di, 28.01. 17:50 4(1200m) 7(4500m) 7(5400m)
Di, 28.01. 17:40 3(1020m) 7(5400m) 7(6000m)
Di, 28.01. 17:30 2(990m) 7(1410m) 7(1500m)
Di, 28.01. 17:20 2(990m) 7(1410m) 7(1500m)
Di, 28.01. 17:10 4(1140m) 7(1440m) 7(5400m)
Di, 28.01. 17:00 6(1230m) 7(1470m) 7(5400m)
Di, 28.01. 16:30 3(1110m) 4(1440m) 7(4800m)
Di, 28.01. 16:00 2(1140m) 6(1500m) 7(5100m)
Di, 28.01. 15:30 2(480m) 3(660m) 4(5100m)
Di, 28.01. 15:00 2(780m) 5(1500m) 7(4800m)
Ortszeit Luftdruck NN (hPa) Tendenz (hPa in 3 Std.)
Di, 28.01. 13:00 1002 + 1,9
Di, 28.01. 7:00 1000 - 2,4
Di, 28.01. 1:00 1004 - 3,2
Mo, 27.01. 19:00 1010 - 2,4
Mo, 27.01. 13:00 1013 - 2,6
Mo, 27.01. 7:00 1018 - 0,8
Mo, 27.01. 1:00 1020 - 0,5
So, 26.01. 19:00 1020 + 0,1
Ortszeit Luftdruck NN (hPa) Tendenz (hPa in 3 Std.)
Di, 28.01. 18:00 1005 + 1,6
Di, 28.01. 17:50 1005 keine Meldung
Di, 28.01. 17:40 1005 keine Meldung
Di, 28.01. 17:30 1005 + 1,8
Di, 28.01. 17:20 1005 keine Meldung
Di, 28.01. 17:10 1004 keine Meldung
Di, 28.01. 17:00 1004 + 1,9
Di, 28.01. 16:30 1004 + 1,6
Di, 28.01. 16:00 1003 + 1,6
Di, 28.01. 15:30 1003 + 2,1
Di, 28.01. 15:00 1003 + 1,9
Ortszeit Schneehöhe (cm)
Di, 28.01. 13:00 0
Di, 28.01. 7:00 0
Di, 28.01. 1:00 0
Mo, 27.01. 19:00 0
Mo, 27.01. 13:00 0
Mo, 27.01. 7:00 0
Mo, 27.01. 1:00 0
So, 26.01. 19:00 0
Ortszeit Schneehöhe (cm)
Di, 28.01. 18:00 0
Di, 28.01. 17:50 0
Di, 28.01. 17:40 0
Di, 28.01. 17:30 0
Di, 28.01. 17:20 0
Di, 28.01. 17:10 0
Di, 28.01. 17:00 0
Di, 28.01. 16:30 0
Di, 28.01. 16:00 0
Di, 28.01. 15:30 0
Di, 28.01. 15:00 0
Link zu dieser Seite / Seite empfehlen

Das Wetter in ...